Terminal Aerodrome Forecast
Issued by NWS

Home | Current Version | Previous Version | Text Only | Print | Product List | Glossary On
Versions: 1 2 3 4 5 6 7 8 9 10 11 12 13 14 15 16 17 18 19 20 21 22 23 24 25 26 27 28 29 30 31
130
FTUS45 KGJT 271749
TAFRIL
TAF
KRIL 271749Z 2718/2818 VRB03KT P6SM VCSH BKN090
     FM272000 30007KT P6SM VCTS SCT060 BKN090CB BKN200
     FM280200 12006KT P6SM SCT090 BKN130
     FM281400 VRB03KT P6SM SCT250=

USA.gov is the U.S. government's official web portal to all federal, state and local government web resources and services.